sensor_id;sensor_type;location;lat;lon;timestamp;P1;durP1;ratioP1;P2;durP2;ratioP2
68234;SDS011;55052;52.056;5.296;2023-02-26T00:01:10;16.83;;;7.88;;
68234;SDS011;55052;52.056;5.296;2023-02-26T00:03:42;16.45;;;8.13;;
68234;SDS011;55052;52.056;5.296;2023-02-26T00:06:09;13.23;;;6.82;;
68234;SDS011;55052;52.056;5.296;2023-02-26T00:08:36;16.17;;;7.63;;
68234;SDS011;55052;52.056;5.296;2023-02-26T00:11:05;14.60;;;6.97;;
68234;SDS011;55052;52.056;5.296;2023-02-26T00:13:32;19.23;;;7.82;;
68234;SDS011;55052;52.056;5.296;2023-02-26T00:16:00;11.57;;;5.63;;
68234;SDS011;55052;52.056;5.296;2023-02-26T00:18:28;12.32;;;6.25;;
68234;SDS011;55052;52.056;5.296;2023-02-26T00:20:55;13.30;;;5.95;;
68234;SDS011;55052;52.056;5.296;2023-02-26T00:23:22;12.32;;;5.57;;
68234;SDS011;55052;52.056;5.296;2023-02-26T00:25:49;14.05;;;6.22;;
68234;SDS011;55052;52.056;5.296;2023-02-26T00:28:16;10.02;;;5.43;;
68234;SDS011;55052;52.056;5.296;2023-02-26T00:30:43;11.82;;;5.68;;
68234;SDS011;55052;52.056;5.296;2023-02-26T00:33:10;9.48;;;4.72;;
68234;SDS011;55052;52.056;5.296;2023-02-26T00:35:37;7.78;;;4.38;;
68234;SDS011;55052;52.056;5.296;2023-02-26T00:38:13;10.07;;;4.30;;
68234;SDS011;55052;52.056;5.296;2023-02-26T00:40:43;7.30;;;4.40;;
68234;SDS011;55052;52.056;5.296;2023-02-26T00:43:13;8.43;;;3.53;;
68234;SDS011;55052;52.056;5.296;2023-02-26T00:46:09;8.82;;;2.83;;
68234;SDS011;55052;52.056;5.296;2023-02-26T00:51:18;11.27;;;3.40;;
68234;SDS011;55052;52.056;5.296;2023-02-26T00:53:58;8.57;;;2.78;;
68234;SDS011;55052;52.056;5.296;2023-02-26T00:56:28;8.48;;;3.20;;
68234;SDS011;55052;52.056;5.296;2023-02-26T00:58:55;4.88;;;2.13;;
68234;SDS011;55052;52.056;5.296;2023-02-26T01:01:22;6.95;;;2.38;;
68234;SDS011;55052;52.056;5.296;2023-02-26T01:03:49;6.68;;;3.33;;
68234;SDS011;55052;52.056;5.296;2023-02-26T01:06:18;5.72;;;2.50;;
68234;SDS011;55052;52.056;5.296;2023-02-26T01:08:49;7.18;;;2.42;;
68234;SDS011;55052;52.056;5.296;2023-02-26T01:11:35;7.05;;;2.38;;
68234;SDS011;55052;52.056;5.296;2023-02-26T01:14:02;5.72;;;2.30;;
68234;SDS011;55052;52.056;5.296;2023-02-26T01:16:32;6.45;;;1.92;;
68234;SDS011;55052;52.056;5.296;2023-02-26T01:19:13;5.32;;;2.22;;
68234;SDS011;55052;52.056;5.296;2023-02-26T01:21:49;5.20;;;2.10;;
68234;SDS011;55052;52.056;5.296;2023-02-26T01:24:21;7.18;;;2.30;;
68234;SDS011;55052;52.056;5.296;2023-02-26T01:26:50;5.40;;;1.90;;
68234;SDS011;55052;52.056;5.296;2023-02-26T01:29:17;8.27;;;2.00;;
68234;SDS011;55052;52.056;5.296;2023-02-26T01:31:55;6.03;;;2.10;;
68234;SDS011;55052;52.056;5.296;2023-02-26T01:34:43;8.05;;;2.20;;
68234;SDS011;55052;52.056;5.296;2023-02-26T01:37:20;4.15;;;1.95;;
68234;SDS011;55052;52.056;5.296;2023-02-26T01:42:30;2.42;;;1.70;;
68234;SDS011;55052;52.056;5.296;2023-02-26T01:45:11;5.60;;;2.03;;
68234;SDS011;55052;52.056;5.296;2023-02-26T01:50:20;4.63;;;2.10;;
68234;SDS011;55052;52.056;5.296;2023-02-26T01:55:45;5.37;;;1.93;;
68234;SDS011;55052;52.056;5.296;2023-02-26T01:58:17;6.30;;;1.85;;
68234;SDS011;55052;52.056;5.296;2023-02-26T02:00:46;5.50;;;1.70;;
68234;SDS011;55052;52.056;5.296;2023-02-26T02:03:13;7.43;;;1.85;;
68234;SDS011;55052;52.056;5.296;2023-02-26T02:05:47;6.35;;;1.70;;
68234;SDS011;55052;52.056;5.296;2023-02-26T02:08:19;9.40;;;1.77;;
68234;SDS011;55052;52.056;5.296;2023-02-26T02:10:47;3.65;;;1.90;;
68234;SDS011;55052;52.056;5.296;2023-02-26T02:13:24;5.63;;;1.75;;
68234;SDS011;55052;52.056;5.296;2023-02-26T02:21:35;4.47;;;1.83;;
68234;SDS011;55052;52.056;5.296;2023-02-26T02:32:53;4.35;;;1.80;;
68234;SDS011;55052;52.056;5.296;2023-02-26T02:35:28;6.57;;;2.38;;
68234;SDS011;55052;52.056;5.296;2023-02-26T02:38:03;7.20;;;2.10;;
68234;SDS011;55052;52.056;5.296;2023-02-26T02:40:35;3.55;;;1.92;;
68234;SDS011;55052;52.056;5.296;2023-02-26T02:43:24;7.25;;;2.05;;
68234;SDS011;55052;52.056;5.296;2023-02-26T02:48:33;5.45;;;1.90;;
68234;SDS011;55052;52.056;5.296;2023-02-26T02:51:06;6.80;;;2.03;;
68234;SDS011;55052;52.056;5.296;2023-02-26T02:53:38;5.30;;;1.90;;
68234;SDS011;55052;52.056;5.296;2023-02-26T02:56:16;8.50;;;2.08;;
68234;SDS011;55052;52.056;5.296;2023-02-26T02:58:50;5.18;;;1.70;;
68234;SDS011;55052;52.056;5.296;2023-02-26T03:01:22;9.07;;;1.92;;
68234;SDS011;55052;52.056;5.296;2023-02-26T03:03:57;2.80;;;1.52;;
68234;SDS011;55052;52.056;5.296;2023-02-26T03:06:28;4.38;;;1.67;;
68234;SDS011;55052;52.056;5.296;2023-02-26T03:08:54;2.45;;;1.50;;
68234;SDS011;55052;52.056;5.296;2023-02-26T03:11:22;6.97;;;1.92;;
68234;SDS011;55052;52.056;5.296;2023-02-26T03:13:49;4.80;;;1.80;;
68234;SDS011;55052;52.056;5.296;2023-02-26T03:22:04;4.93;;;1.60;;
68234;SDS011;55052;52.056;5.296;2023-02-26T03:35:30;5.88;;;1.75;;
68234;SDS011;55052;52.056;5.296;2023-02-26T03:38:13;5.10;;;1.60;;
68234;SDS011;55052;52.056;5.296;2023-02-26T03:40:53;6.25;;;1.90;;
68234;SDS011;55052;52.056;5.296;2023-02-26T03:43:29;4.45;;;1.60;;
68234;SDS011;55052;52.056;5.296;2023-02-26T03:46:05;10.23;;;1.93;;
68234;SDS011;55052;52.056;5.296;2023-02-26T03:48:36;7.15;;;1.90;;
68234;SDS011;55052;52.056;5.296;2023-02-26T03:51:04;6.10;;;1.70;;
68234;SDS011;55052;52.056;5.296;2023-02-26T03:53:41;3.00;;;1.60;;
68234;SDS011;55052;52.056;5.296;2023-02-26T03:56:33;4.97;;;1.80;;
68234;SDS011;55052;52.056;5.296;2023-02-26T03:59:06;7.10;;;2.00;;
68234;SDS011;55052;52.056;5.296;2023-02-26T04:01:35;4.18;;;1.48;;
68234;SDS011;55052;52.056;5.296;2023-02-26T04:04:19;2.30;;;1.40;;
68234;SDS011;55052;52.056;5.296;2023-02-26T04:07:08;5.47;;;1.90;;
68234;SDS011;55052;52.056;5.296;2023-02-26T04:09:41;3.28;;;1.52;;
68234;SDS011;55052;52.056;5.296;2023-02-26T04:12:13;3.70;;;1.52;;
68234;SDS011;55052;52.056;5.296;2023-02-26T04:14:40;3.83;;;1.65;;
68234;SDS011;55052;52.056;5.296;2023-02-26T04:17:07;5.97;;;1.92;;
68234;SDS011;55052;52.056;5.296;2023-02-26T04:19:34;6.32;;;1.60;;
68234;SDS011;55052;52.056;5.296;2023-02-26T04:22:01;3.72;;;1.77;;
68234;SDS011;55052;52.056;5.296;2023-02-26T04:24:27;3.72;;;1.55;;
68234;SDS011;55052;52.056;5.296;2023-02-26T04:26:55;3.78;;;1.65;;
68234;SDS011;55052;52.056;5.296;2023-02-26T04:29:21;6.45;;;1.98;;
68234;SDS011;55052;52.056;5.296;2023-02-26T04:31:48;4.50;;;1.67;;
68234;SDS011;55052;52.056;5.296;2023-02-26T04:34:15;6.40;;;1.80;;
68234;SDS011;55052;52.056;5.296;2023-02-26T04:36:42;10.18;;;2.00;;
68234;SDS011;55052;52.056;5.296;2023-02-26T04:39:09;3.38;;;1.50;;
68234;SDS011;55052;52.056;5.296;2023-02-26T04:41:36;2.97;;;1.50;;
68234;SDS011;55052;52.056;5.296;2023-02-26T04:44:03;3.25;;;1.60;;
68234;SDS011;55052;52.056;5.296;2023-02-26T04:46:31;4.13;;;1.60;;
68234;SDS011;55052;52.056;5.296;2023-02-26T04:48:58;1.80;;;1.70;;
68234;SDS011;55052;52.056;5.296;2023-02-26T04:51:25;4.90;;;1.77;;
68234;SDS011;55052;52.056;5.296;2023-02-26T04:53:52;7.65;;;2.00;;
68234;SDS011;55052;52.056;5.296;2023-02-26T04:56:19;3.92;;;1.60;;
68234;SDS011;55052;52.056;5.296;2023-02-26T04:58:45;1.85;;;1.60;;
68234;SDS011;55052;52.056;5.296;2023-02-26T05:01:12;4.85;;;1.58;;
68234;SDS011;55052;52.056;5.296;2023-02-26T05:03:39;4.75;;;2.15;;
68234;SDS011;55052;52.056;5.296;2023-02-26T05:06:06;3.72;;;1.60;;
68234;SDS011;55052;52.056;5.296;2023-02-26T05:08:33;5.05;;;1.77;;
68234;SDS011;55052;52.056;5.296;2023-02-26T05:10:59;5.63;;;1.77;;
68234;SDS011;55052;52.056;5.296;2023-02-26T05:13:26;5.32;;;1.67;;
68234;SDS011;55052;52.056;5.296;2023-02-26T05:15:53;3.65;;;1.52;;
68234;SDS011;55052;52.056;5.296;2023-02-26T05:18:20;3.95;;;1.50;;
68234;SDS011;55052;52.056;5.296;2023-02-26T05:20:50;4.47;;;1.70;;
68234;SDS011;55052;52.056;5.296;2023-02-26T05:23:18;6.07;;;1.80;;
68234;SDS011;55052;52.056;5.296;2023-02-26T05:25:45;4.43;;;1.70;;
68234;SDS011;55052;52.056;5.296;2023-02-26T05:28:12;6.70;;;1.88;;
68234;SDS011;55052;52.056;5.296;2023-02-26T05:30:39;3.50;;;1.70;;
68234;SDS011;55052;52.056;5.296;2023-02-26T05:33:06;2.90;;;1.50;;
68234;SDS011;55052;52.056;5.296;2023-02-26T05:35:33;3.00;;;1.60;;
68234;SDS011;55052;52.056;5.296;2023-02-26T05:38:00;5.80;;;1.60;;
68234;SDS011;55052;52.056;5.296;2023-02-26T05:40:27;3.05;;;1.50;;
68234;SDS011;55052;52.056;5.296;2023-02-26T05:42:54;4.78;;;1.63;;
68234;SDS011;55052;52.056;5.296;2023-02-26T05:45:20;3.17;;;1.50;;
68234;SDS011;55052;52.056;5.296;2023-02-26T05:47:47;5.15;;;1.67;;
68234;SDS011;55052;52.056;5.296;2023-02-26T05:50:14;12.75;;;6.22;;
68234;SDS011;55052;52.056;5.296;2023-02-26T05:52:41;7.30;;;3.92;;
68234;SDS011;55052;52.056;5.296;2023-02-26T05:55:08;7.90;;;2.58;;
68234;SDS011;55052;52.056;5.296;2023-02-26T05:57:35;5.20;;;2.10;;
68234;SDS011;55052;52.056;5.296;2023-02-26T06:00:02;4.93;;;2.20;;
68234;SDS011;55052;52.056;5.296;2023-02-26T06:02:31;6.22;;;2.00;;
68234;SDS011;55052;52.056;5.296;2023-02-26T06:04:58;4.50;;;1.90;;
68234;SDS011;55052;52.056;5.296;2023-02-26T06:07:25;3.35;;;1.48;;
68234;SDS011;55052;52.056;5.296;2023-02-26T06:09:52;3.33;;;1.60;;
68234;SDS011;55052;52.056;5.296;2023-02-26T06:12:18;3.25;;;2.00;;
68234;SDS011;55052;52.056;5.296;2023-02-26T06:14:45;2.63;;;1.52;;
68234;SDS011;55052;52.056;5.296;2023-02-26T06:17:12;3.47;;;1.98;;
68234;SDS011;55052;52.056;5.296;2023-02-26T06:19:39;1.88;;;1.52;;
68234;SDS011;55052;52.056;5.296;2023-02-26T06:22:06;5.03;;;1.98;;
68234;SDS011;55052;52.056;5.296;2023-02-26T06:24:33;7.13;;;1.98;;
68234;SDS011;55052;52.056;5.296;2023-02-26T06:27:00;3.55;;;1.60;;
68234;SDS011;55052;52.056;5.296;2023-02-26T06:29:27;6.80;;;1.85;;
68234;SDS011;55052;52.056;5.296;2023-02-26T06:31:53;5.28;;;1.60;;
68234;SDS011;55052;52.056;5.296;2023-02-26T06:34:20;7.00;;;2.10;;
68234;SDS011;55052;52.056;5.296;2023-02-26T06:36:47;5.15;;;1.77;;
68234;SDS011;55052;52.056;5.296;2023-02-26T06:39:14;3.60;;;1.98;;
68234;SDS011;55052;52.056;5.296;2023-02-26T06:41:41;3.20;;;1.63;;
68234;SDS011;55052;52.056;5.296;2023-02-26T06:44:08;4.15;;;1.70;;
68234;SDS011;55052;52.056;5.296;2023-02-26T06:46:36;5.28;;;2.00;;
68234;SDS011;55052;52.056;5.296;2023-02-26T06:49:03;2.15;;;1.52;;
68234;SDS011;55052;52.056;5.296;2023-02-26T06:51:30;7.53;;;1.85;;
68234;SDS011;55052;52.056;5.296;2023-02-26T06:53:57;2.65;;;1.70;;
68234;SDS011;55052;52.056;5.296;2023-02-26T06:56:24;4.72;;;1.80;;
68234;SDS011;55052;52.056;5.296;2023-02-26T06:58:51;2.55;;;1.65;;
68234;SDS011;55052;52.056;5.296;2023-02-26T07:01:18;1.88;;;1.63;;
68234;SDS011;55052;52.056;5.296;2023-02-26T07:03:45;2.88;;;1.67;;
68234;SDS011;55052;52.056;5.296;2023-02-26T07:06:12;3.05;;;1.75;;
68234;SDS011;55052;52.056;5.296;2023-02-26T07:08:52;6.70;;;2.10;;
68234;SDS011;55052;52.056;5.296;2023-02-26T07:11:20;7.40;;;2.22;;
68234;SDS011;55052;52.056;5.296;2023-02-26T07:13:47;5.28;;;1.75;;
68234;SDS011;55052;52.056;5.296;2023-02-26T07:16:13;3.35;;;1.60;;
68234;SDS011;55052;52.056;5.296;2023-02-26T07:18:40;3.65;;;1.70;;
68234;SDS011;55052;52.056;5.296;2023-02-26T07:21:07;4.28;;;1.83;;
68234;SDS011;55052;52.056;5.296;2023-02-26T07:23:34;5.97;;;1.75;;
68234;SDS011;55052;52.056;5.296;2023-02-26T07:26:01;4.10;;;1.50;;
68234;SDS011;55052;52.056;5.296;2023-02-26T07:28:28;8.73;;;1.90;;
68234;SDS011;55052;52.056;5.296;2023-02-26T07:30:55;5.15;;;1.52;;
68234;SDS011;55052;52.056;5.296;2023-02-26T07:33:22;5.60;;;2.08;;
68234;SDS011;55052;52.056;5.296;2023-02-26T07:35:51;3.13;;;1.55;;
68234;SDS011;55052;52.056;5.296;2023-02-26T07:38:18;3.63;;;2.35;;
68234;SDS011;55052;52.056;5.296;2023-02-26T07:40:45;6.72;;;1.63;;
68234;SDS011;55052;52.056;5.296;2023-02-26T07:43:12;5.63;;;1.52;;
68234;SDS011;55052;52.056;5.296;2023-02-26T07:45:39;4.78;;;1.77;;
68234;SDS011;55052;52.056;5.296;2023-02-26T07:48:06;5.97;;;2.05;;
68234;SDS011;55052;52.056;5.296;2023-02-26T07:50:33;4.95;;;1.85;;
68234;SDS011;55052;52.056;5.296;2023-02-26T07:53:00;5.13;;;1.63;;
68234;SDS011;55052;52.056;5.296;2023-02-26T07:55:26;5.18;;;1.80;;
68234;SDS011;55052;52.056;5.296;2023-02-26T07:57:53;4.40;;;1.83;;
68234;SDS011;55052;52.056;5.296;2023-02-26T08:00:20;6.35;;;1.60;;
68234;SDS011;55052;52.056;5.296;2023-02-26T08:02:47;6.55;;;1.75;;
68234;SDS011;55052;52.056;5.296;2023-02-26T08:05:14;2.83;;;1.52;;
68234;SDS011;55052;52.056;5.296;2023-02-26T08:07:40;5.05;;;1.60;;
68234;SDS011;55052;52.056;5.296;2023-02-26T08:10:08;6.47;;;1.60;;
68234;SDS011;55052;52.056;5.296;2023-02-26T08:12:35;4.97;;;1.70;;
68234;SDS011;55052;52.056;5.296;2023-02-26T08:15:03;5.07;;;1.60;;
68234;SDS011;55052;52.056;5.296;2023-02-26T08:17:30;6.82;;;2.13;;
68234;SDS011;55052;52.056;5.296;2023-02-26T08:19:57;4.70;;;1.80;;
68234;SDS011;55052;52.056;5.296;2023-02-26T08:22:24;6.07;;;2.00;;
68234;SDS011;55052;52.056;5.296;2023-02-26T08:24:51;4.80;;;1.70;;
68234;SDS011;55052;52.056;5.296;2023-02-26T08:27:17;3.03;;;1.75;;
68234;SDS011;55052;52.056;5.296;2023-02-26T08:29:45;4.15;;;1.60;;
68234;SDS011;55052;52.056;5.296;2023-02-26T08:32:15;5.68;;;2.13;;
68234;SDS011;55052;52.056;5.296;2023-02-26T08:34:45;4.55;;;1.80;;
68234;SDS011;55052;52.056;5.296;2023-02-26T08:37:12;4.70;;;1.73;;
68234;SDS011;55052;52.056;5.296;2023-02-26T08:39:39;4.55;;;1.60;;
68234;SDS011;55052;52.056;5.296;2023-02-26T08:42:06;6.03;;;1.60;;
68234;SDS011;55052;52.056;5.296;2023-02-26T08:44:34;7.75;;;1.63;;
68234;SDS011;55052;52.056;5.296;2023-02-26T08:47:01;4.93;;;1.70;;
68234;SDS011;55052;52.056;5.296;2023-02-26T08:49:28;6.80;;;1.70;;
68234;SDS011;55052;52.056;5.296;2023-02-26T08:51:55;4.20;;;1.77;;
68234;SDS011;55052;52.056;5.296;2023-02-26T08:54:22;5.07;;;1.90;;
68234;SDS011;55052;52.056;5.296;2023-02-26T08:56:49;7.45;;;1.75;;
68234;SDS011;55052;52.056;5.296;2023-02-26T08:59:16;9.15;;;1.90;;
68234;SDS011;55052;52.056;5.296;2023-02-26T09:01:43;6.47;;;2.00;;
68234;SDS011;55052;52.056;5.296;2023-02-26T09:04:10;6.28;;;1.52;;
68234;SDS011;55052;52.056;5.296;2023-02-26T09:06:36;3.50;;;1.70;;
68234;SDS011;55052;52.056;5.296;2023-02-26T09:09:03;5.10;;;1.70;;
68234;SDS011;55052;52.056;5.296;2023-02-26T09:11:30;4.97;;;1.80;;
68234;SDS011;55052;52.056;5.296;2023-02-26T09:13:57;5.82;;;1.80;;
68234;SDS011;55052;52.056;5.296;2023-02-26T09:16:24;4.10;;;2.00;;
68234;SDS011;55052;52.056;5.296;2023-02-26T09:18:52;3.65;;;1.67;;
68234;SDS011;55052;52.056;5.296;2023-02-26T09:21:19;8.75;;;1.70;;
68234;SDS011;55052;52.056;5.296;2023-02-26T09:23:46;4.05;;;2.10;;
68234;SDS011;55052;52.056;5.296;2023-02-26T09:26:13;3.97;;;1.58;;
68234;SDS011;55052;52.056;5.296;2023-02-26T09:28:40;3.13;;;1.55;;
68234;SDS011;55052;52.056;5.296;2023-02-26T09:31:06;7.32;;;2.20;;
68234;SDS011;55052;52.056;5.296;2023-02-26T09:33:34;3.80;;;1.50;;
68234;SDS011;55052;52.056;5.296;2023-02-26T09:36:01;5.05;;;1.80;;
68234;SDS011;55052;52.056;5.296;2023-02-26T09:38:28;2.03;;;1.30;;
68234;SDS011;55052;52.056;5.296;2023-02-26T09:46:09;4.15;;;1.60;;
68234;SDS011;55052;52.056;5.296;2023-02-26T09:53:57;4.60;;;1.58;;
68234;SDS011;55052;52.056;5.296;2023-02-26T09:56:26;4.55;;;1.55;;
68234;SDS011;55052;52.056;5.296;2023-02-26T09:58:57;5.55;;;1.55;;
68234;SDS011;55052;52.056;5.296;2023-02-26T10:01:26;3.05;;;1.63;;
68234;SDS011;55052;52.056;5.296;2023-02-26T10:11:59;3.13;;;1.50;;
68234;SDS011;55052;52.056;5.296;2023-02-26T10:17:21;2.92;;;1.63;;
68234;SDS011;55052;52.056;5.296;2023-02-26T10:19:57;6.38;;;1.52;;
68234;SDS011;55052;52.056;5.296;2023-02-26T10:22:36;3.95;;;1.60;;
68234;SDS011;55052;52.056;5.296;2023-02-26T10:30:43;5.85;;;1.50;;
68234;SDS011;55052;52.056;5.296;2023-02-26T10:33:20;3.08;;;1.40;;
68234;SDS011;55052;52.056;5.296;2023-02-26T10:36:06;4.07;;;1.17;;
68234;SDS011;55052;52.056;5.296;2023-02-26T10:38:48;4.95;;;1.58;;
68234;SDS011;55052;52.056;5.296;2023-02-26T10:41:19;3.60;;;1.33;;
68234;SDS011;55052;52.056;5.296;2023-02-26T10:49:22;3.90;;;1.30;;
68234;SDS011;55052;52.056;5.296;2023-02-26T10:51:57;2.80;;;1.27;;
68234;SDS011;55052;52.056;5.296;2023-02-26T10:54:36;2.33;;;1.48;;
68234;SDS011;55052;52.056;5.296;2023-02-26T10:57:13;3.42;;;1.30;;
68234;SDS011;55052;52.056;5.296;2023-02-26T10:59:48;1.65;;;1.20;;
68234;SDS011;55052;52.056;5.296;2023-02-26T11:05:29;3.10;;;1.45;;
68234;SDS011;55052;52.056;5.296;2023-02-26T11:08:02;5.10;;;1.40;;
68234;SDS011;55052;52.056;5.296;2023-02-26T11:10:42;1.77;;;1.30;;
68234;SDS011;55052;52.056;5.296;2023-02-26T11:13:13;2.28;;;1.15;;
68234;SDS011;55052;52.056;5.296;2023-02-26T11:15:40;3.00;;;1.27;;
68234;SDS011;55052;52.056;5.296;2023-02-26T11:18:11;2.42;;;1.30;;
68234;SDS011;55052;52.056;5.296;2023-02-26T11:20:42;1.30;;;1.20;;
68234;SDS011;55052;52.056;5.296;2023-02-26T11:23:12;2.43;;;1.17;;
68234;SDS011;55052;52.056;5.296;2023-02-26T11:25:43;3.72;;;1.30;;
68234;SDS011;55052;52.056;5.296;2023-02-26T11:28:20;2.20;;;1.23;;
68234;SDS011;55052;52.056;5.296;2023-02-26T11:30:51;2.15;;;1.20;;
68234;SDS011;55052;52.056;5.296;2023-02-26T11:33:27;2.70;;;1.40;;
68234;SDS011;55052;52.056;5.296;2023-02-26T11:36:01;2.35;;;1.20;;
68234;SDS011;55052;52.056;5.296;2023-02-26T11:38:32;1.73;;;1.23;;
68234;SDS011;55052;52.056;5.296;2023-02-26T11:40:59;1.15;;;1.10;;
68234;SDS011;55052;52.056;5.296;2023-02-26T11:43:32;1.38;;;1.20;;
68234;SDS011;55052;52.056;5.296;2023-02-26T11:46:10;2.83;;;1.20;;
68234;SDS011;55052;52.056;5.296;2023-02-26T11:48:42;3.90;;;1.50;;
68234;SDS011;55052;52.056;5.296;2023-02-26T11:51:15;3.38;;;1.50;;
68234;SDS011;55052;52.056;5.296;2023-02-26T11:53:52;3.35;;;1.50;;
68234;SDS011;55052;52.056;5.296;2023-02-26T11:59:06;2.38;;;1.30;;
68234;SDS011;55052;52.056;5.296;2023-02-26T12:01:42;2.65;;;1.40;;
68234;SDS011;55052;52.056;5.296;2023-02-26T12:04:09;2.97;;;1.40;;
68234;SDS011;55052;52.056;5.296;2023-02-26T12:06:38;3.63;;;1.50;;
68234;SDS011;55052;52.056;5.296;2023-02-26T12:09:08;3.80;;;1.40;;
68234;SDS011;55052;52.056;5.296;2023-02-26T12:17:31;3.50;;;1.50;;
68234;SDS011;55052;52.056;5.296;2023-02-26T12:20:12;4.70;;;1.50;;
68234;SDS011;55052;52.056;5.296;2023-02-26T12:25:51;2.60;;;1.40;;
68234;SDS011;55052;52.056;5.296;2023-02-26T12:48:01;2.22;;;1.40;;
68234;SDS011;55052;52.056;5.296;2023-02-26T13:02:08;2.63;;;1.30;;
68234;SDS011;55052;52.056;5.296;2023-02-26T13:05:00;1.50;;;1.30;;
68234;SDS011;55052;52.056;5.296;2023-02-26T13:13:34;1.58;;;1.10;;
68234;SDS011;55052;52.056;5.296;2023-02-26T13:21:52;3.05;;;1.30;;
68234;SDS011;55052;52.056;5.296;2023-02-26T13:24:38;3.92;;;1.60;;
68234;SDS011;55052;52.056;5.296;2023-02-26T13:27:08;2.90;;;1.35;;
68234;SDS011;55052;52.056;5.296;2023-02-26T13:29:39;3.22;;;1.30;;
68234;SDS011;55052;52.056;5.296;2023-02-26T13:32:17;2.97;;;1.20;;
68234;SDS011;55052;52.056;5.296;2023-02-26T13:34:54;1.95;;;1.20;;
68234;SDS011;55052;52.056;5.296;2023-02-26T13:37:29;3.85;;;1.67;;
68234;SDS011;55052;52.056;5.296;2023-02-26T13:43:59;4.25;;;1.45;;
68234;SDS011;55052;52.056;5.296;2023-02-26T13:51:41;1.25;;;1.13;;
68234;SDS011;55052;52.056;5.296;2023-02-26T14:06:47;1.20;;;1.10;;
68234;SDS011;55052;52.056;5.296;2023-02-26T14:10:03;3.70;;;1.10;;
68234;SDS011;55052;52.056;5.296;2023-02-26T14:12:25;3.65;;;1.20;;
68234;SDS011;55052;52.056;5.296;2023-02-26T14:15:27;1.17;;;1.10;;
68234;SDS011;55052;52.056;5.296;2023-02-26T14:18:04;2.53;;;1.25;;
68234;SDS011;55052;52.056;5.296;2023-02-26T14:20:44;2.20;;;1.13;;
68234;SDS011;55052;52.056;5.296;2023-02-26T14:23:21;1.70;;;1.20;;
68234;SDS011;55052;52.056;5.296;2023-02-26T14:26:02;4.22;;;1.30;;
68234;SDS011;55052;52.056;5.296;2023-02-26T14:28:33;1.60;;;1.33;;
68234;SDS011;55052;52.056;5.296;2023-02-26T14:33:44;3.50;;;1.20;;
68234;SDS011;55052;52.056;5.296;2023-02-26T14:36:14;4.82;;;1.20;;
68234;SDS011;55052;52.056;5.296;2023-02-26T14:38:57;2.40;;;1.20;;
68234;SDS011;55052;52.056;5.296;2023-02-26T14:41:28;1.73;;;1.15;;
68234;SDS011;55052;52.056;5.296;2023-02-26T14:44:02;2.33;;;1.20;;
68234;SDS011;55052;52.056;5.296;2023-02-26T14:46:41;3.33;;;1.83;;
68234;SDS011;55052;52.056;5.296;2023-02-26T14:49:13;2.03;;;1.20;;
68234;SDS011;55052;52.056;5.296;2023-02-26T14:54:22;2.40;;;1.00;;
68234;SDS011;55052;52.056;5.296;2023-02-26T15:07:57;1.88;;;1.20;;
68234;SDS011;55052;52.056;5.296;2023-02-26T15:16:00;1.52;;;1.17;;
68234;SDS011;55052;52.056;5.296;2023-02-26T15:23:52;2.17;;;1.00;;
68234;SDS011;55052;52.056;5.296;2023-02-26T15:26:25;3.45;;;1.35;;
68234;SDS011;55052;52.056;5.296;2023-02-26T15:28:55;2.80;;;1.00;;
68234;SDS011;55052;52.056;5.296;2023-02-26T15:31:34;1.10;;;1.00;;
68234;SDS011;55052;52.056;5.296;2023-02-26T15:34:02;3.53;;;1.10;;
68234;SDS011;55052;52.056;5.296;2023-02-26T15:36:29;11.00;;;1.50;;
68234;SDS011;55052;52.056;5.296;2023-02-26T15:39:00;2.92;;;1.08;;
68234;SDS011;55052;52.056;5.296;2023-02-26T15:41:32;1.38;;;0.93;;
68234;SDS011;55052;52.056;5.296;2023-02-26T15:44:00;1.88;;;1.20;;
68234;SDS011;55052;52.056;5.296;2023-02-26T15:46:34;8.82;;;3.58;;
68234;SDS011;55052;52.056;5.296;2023-02-26T15:49:08;5.57;;;2.38;;
68234;SDS011;55052;52.056;5.296;2023-02-26T15:51:42;3.10;;;1.60;;
68234;SDS011;55052;52.056;5.296;2023-02-26T15:54:14;3.63;;;1.83;;
68234;SDS011;55052;52.056;5.296;2023-02-26T15:56:44;2.75;;;1.63;;
68234;SDS011;55052;52.056;5.296;2023-02-26T15:59:15;9.07;;;1.73;;
68234;SDS011;55052;52.056;5.296;2023-02-26T16:01:46;4.53;;;1.83;;
68234;SDS011;55052;52.056;5.296;2023-02-26T16:04:15;5.50;;;2.50;;
68234;SDS011;55052;52.056;5.296;2023-02-26T16:06:45;6.20;;;2.92;;
68234;SDS011;55052;52.056;5.296;2023-02-26T16:12:23;5.78;;;2.15;;
68234;SDS011;55052;52.056;5.296;2023-02-26T16:15:02;8.50;;;2.88;;
68234;SDS011;55052;52.056;5.296;2023-02-26T16:17:34;4.45;;;1.40;;
68234;SDS011;55052;52.056;5.296;2023-02-26T16:20:12;5.57;;;2.08;;
68234;SDS011;55052;52.056;5.296;2023-02-26T16:22:42;4.72;;;2.03;;
68234;SDS011;55052;52.056;5.296;2023-02-26T16:25:27;3.15;;;1.70;;
68234;SDS011;55052;52.056;5.296;2023-02-26T16:28:00;4.40;;;1.90;;
68234;SDS011;55052;52.056;5.296;2023-02-26T16:33:00;5.22;;;1.70;;
68234;SDS011;55052;52.056;5.296;2023-02-26T16:35:31;5.18;;;1.42;;
68234;SDS011;55052;52.056;5.296;2023-02-26T16:38:10;4.25;;;1.60;;
68234;SDS011;55052;52.056;5.296;2023-02-26T16:41:05;3.08;;;1.50;;
68234;SDS011;55052;52.056;5.296;2023-02-26T16:49:19;3.53;;;1.60;;
68234;SDS011;55052;52.056;5.296;2023-02-26T16:51:50;4.47;;;2.00;;
68234;SDS011;55052;52.056;5.296;2023-02-26T16:54:19;3.88;;;1.90;;
68234;SDS011;55052;52.056;5.296;2023-02-26T16:59:54;5.97;;;2.33;;
68234;SDS011;55052;52.056;5.296;2023-02-26T17:02:28;5.35;;;2.30;;
68234;SDS011;55052;52.056;5.296;2023-02-26T17:04:58;5.88;;;3.08;;
68234;SDS011;55052;52.056;5.296;2023-02-26T17:07:34;6.25;;;2.75;;
68234;SDS011;55052;52.056;5.296;2023-02-26T17:13:00;5.32;;;2.25;;
68234;SDS011;55052;52.056;5.296;2023-02-26T17:15:35;4.95;;;2.10;;
68234;SDS011;55052;52.056;5.296;2023-02-26T17:18:03;5.28;;;2.65;;
68234;SDS011;55052;52.056;5.296;2023-02-26T17:20:30;5.10;;;1.95;;
68234;SDS011;55052;52.056;5.296;2023-02-26T17:22:58;5.63;;;2.00;;
68234;SDS011;55052;52.056;5.296;2023-02-26T17:25:27;6.88;;;3.17;;
68234;SDS011;55052;52.056;5.296;2023-02-26T17:27:59;6.38;;;2.17;;
68234;SDS011;55052;52.056;5.296;2023-02-26T17:30:27;4.70;;;1.90;;
68234;SDS011;55052;52.056;5.296;2023-02-26T17:32:58;6.95;;;1.83;;
68234;SDS011;55052;52.056;5.296;2023-02-26T17:35:26;5.50;;;1.77;;
68234;SDS011;55052;52.056;5.296;2023-02-26T17:37:54;6.93;;;1.92;;
68234;SDS011;55052;52.056;5.296;2023-02-26T17:40:26;5.57;;;2.28;;
68234;SDS011;55052;52.056;5.296;2023-02-26T17:42:56;3.88;;;2.10;;
68234;SDS011;55052;52.056;5.296;2023-02-26T17:45:25;6.05;;;2.25;;
68234;SDS011;55052;52.056;5.296;2023-02-26T17:47:52;5.25;;;2.67;;
68234;SDS011;55052;52.056;5.296;2023-02-26T17:50:26;7.55;;;1.98;;
68234;SDS011;55052;52.056;5.296;2023-02-26T17:53:02;6.18;;;1.90;;
68234;SDS011;55052;52.056;5.296;2023-02-26T17:55:30;4.45;;;1.73;;
68234;SDS011;55052;52.056;5.296;2023-02-26T17:57:57;4.80;;;1.85;;
68234;SDS011;55052;52.056;5.296;2023-02-26T18:00:24;5.30;;;1.90;;
68234;SDS011;55052;52.056;5.296;2023-02-26T18:02:51;5.90;;;2.90;;
68234;SDS011;55052;52.056;5.296;2023-02-26T18:05:18;7.10;;;2.67;;
68234;SDS011;55052;52.056;5.296;2023-02-26T18:07:45;5.75;;;2.25;;
68234;SDS011;55052;52.056;5.296;2023-02-26T18:10:15;8.32;;;2.28;;
68234;SDS011;55052;52.056;5.296;2023-02-26T18:12:47;8.40;;;2.90;;
68234;SDS011;55052;52.056;5.296;2023-02-26T18:15:15;4.82;;;1.88;;
68234;SDS011;55052;52.056;5.296;2023-02-26T18:17:42;4.47;;;2.03;;
68234;SDS011;55052;52.056;5.296;2023-02-26T18:20:17;4.25;;;1.88;;
68234;SDS011;55052;52.056;5.296;2023-02-26T18:22:48;6.45;;;2.25;;
68234;SDS011;55052;52.056;5.296;2023-02-26T18:25:15;7.18;;;2.95;;
68234;SDS011;55052;52.056;5.296;2023-02-26T18:27:43;7.72;;;2.50;;
68234;SDS011;55052;52.056;5.296;2023-02-26T18:30:21;6.88;;;2.90;;